sensor_id;sensor_type;location;lat;lon;timestamp;P1;durP1;ratioP1;P2;durP2;ratioP2
23561;SDS011;11959;49.418;8.728;2022-10-31T00:00:39;10.80;;;5.90;;
23561;SDS011;11959;49.418;8.728;2022-10-31T00:03:06;8.23;;;5.55;;
23561;SDS011;11959;49.418;8.728;2022-10-31T00:05:31;10.45;;;5.90;;
23561;SDS011;11959;49.418;8.728;2022-10-31T00:07:57;11.73;;;5.88;;
23561;SDS011;11959;49.418;8.728;2022-10-31T00:10:22;8.85;;;5.13;;
23561;SDS011;11959;49.418;8.728;2022-10-31T00:12:48;13.68;;;5.70;;
23561;SDS011;11959;49.418;8.728;2022-10-31T00:15:14;11.73;;;5.60;;
23561;SDS011;11959;49.418;8.728;2022-10-31T00:17:39;12.93;;;4.72;;
23561;SDS011;11959;49.418;8.728;2022-10-31T00:20:05;11.05;;;5.55;;
23561;SDS011;11959;49.418;8.728;2022-10-31T00:22:31;12.88;;;5.57;;
23561;SDS011;11959;49.418;8.728;2022-10-31T00:24:57;13.13;;;5.32;;
23561;SDS011;11959;49.418;8.728;2022-10-31T00:27:22;9.32;;;5.57;;
23561;SDS011;11959;49.418;8.728;2022-10-31T00:29:48;11.23;;;5.63;;
23561;SDS011;11959;49.418;8.728;2022-10-31T00:32:14;13.55;;;5.80;;
23561;SDS011;11959;49.418;8.728;2022-10-31T00:34:39;9.43;;;5.10;;
23561;SDS011;11959;49.418;8.728;2022-10-31T00:37:05;8.70;;;5.35;;
23561;SDS011;11959;49.418;8.728;2022-10-31T00:39:32;9.18;;;4.82;;
23561;SDS011;11959;49.418;8.728;2022-10-31T00:41:57;10.45;;;5.28;;
23561;SDS011;11959;49.418;8.728;2022-10-31T00:44:23;10.48;;;5.22;;
23561;SDS011;11959;49.418;8.728;2022-10-31T00:46:49;11.68;;;4.95;;
23561;SDS011;11959;49.418;8.728;2022-10-31T00:49:14;10.88;;;5.40;;
23561;SDS011;11959;49.418;8.728;2022-10-31T00:51:40;10.20;;;4.60;;
23561;SDS011;11959;49.418;8.728;2022-10-31T00:54:06;8.90;;;5.22;;
23561;SDS011;11959;49.418;8.728;2022-10-31T00:56:31;9.38;;;5.40;;
23561;SDS011;11959;49.418;8.728;2022-10-31T00:58:57;8.27;;;4.78;;
23561;SDS011;11959;49.418;8.728;2022-10-31T01:01:22;13.77;;;5.60;;
23561;SDS011;11959;49.418;8.728;2022-10-31T01:03:48;10.20;;;5.13;;
23561;SDS011;11959;49.418;8.728;2022-10-31T01:06:14;11.50;;;5.43;;
23561;SDS011;11959;49.418;8.728;2022-10-31T01:08:41;11.60;;;5.28;;
23561;SDS011;11959;49.418;8.728;2022-10-31T01:11:14;13.75;;;5.55;;
23561;SDS011;11959;49.418;8.728;2022-10-31T01:13:41;12.68;;;5.40;;
23561;SDS011;11959;49.418;8.728;2022-10-31T01:16:08;10.80;;;5.22;;
23561;SDS011;11959;49.418;8.728;2022-10-31T01:18:37;10.38;;;5.45;;
23561;SDS011;11959;49.418;8.728;2022-10-31T01:21:04;12.38;;;5.25;;
23561;SDS011;11959;49.418;8.728;2022-10-31T01:23:32;10.35;;;5.40;;
23561;SDS011;11959;49.418;8.728;2022-10-31T01:26:40;11.77;;;5.68;;
23561;SDS011;11959;49.418;8.728;2022-10-31T01:31:18;8.95;;;5.40;;
23561;SDS011;11959;49.418;8.728;2022-10-31T01:33:46;9.43;;;5.03;;
23561;SDS011;11959;49.418;8.728;2022-10-31T01:36:19;8.80;;;4.68;;
23561;SDS011;11959;49.418;8.728;2022-10-31T01:38:46;10.48;;;5.05;;
23561;SDS011;11959;49.418;8.728;2022-10-31T01:41:14;8.80;;;4.90;;
23561;SDS011;11959;49.418;8.728;2022-10-31T01:43:58;8.15;;;4.85;;
23561;SDS011;11959;49.418;8.728;2022-10-31T01:57:40;9.07;;;5.07;;
23561;SDS011;11959;49.418;8.728;2022-10-31T02:00:10;10.27;;;5.38;;
23561;SDS011;11959;49.418;8.728;2022-10-31T02:02:36;8.63;;;4.47;;
23561;SDS011;11959;49.418;8.728;2022-10-31T02:05:04;8.13;;;5.00;;
23561;SDS011;11959;49.418;8.728;2022-10-31T02:07:55;9.98;;;5.15;;
23561;SDS011;11959;49.418;8.728;2022-10-31T02:10:25;10.32;;;5.20;;
23561;SDS011;11959;49.418;8.728;2022-10-31T02:12:52;9.23;;;4.90;;
23561;SDS011;11959;49.418;8.728;2022-10-31T02:15:20;10.75;;;5.43;;
23561;SDS011;11959;49.418;8.728;2022-10-31T02:17:45;9.20;;;4.78;;
23561;SDS011;11959;49.418;8.728;2022-10-31T02:33:53;7.80;;;4.78;;
23561;SDS011;11959;49.418;8.728;2022-10-31T02:36:29;10.98;;;5.30;;
23561;SDS011;11959;49.418;8.728;2022-10-31T02:42:04;13.20;;;4.80;;
23561;SDS011;11959;49.418;8.728;2022-10-31T02:44:44;9.43;;;5.07;;
23561;SDS011;11959;49.418;8.728;2022-10-31T02:47:37;12.23;;;5.57;;
23561;SDS011;11959;49.418;8.728;2022-10-31T02:50:22;8.60;;;4.72;;
23561;SDS011;11959;49.418;8.728;2022-10-31T02:52:54;12.85;;;5.38;;
23561;SDS011;11959;49.418;8.728;2022-10-31T02:57:53;10.70;;;5.28;;
23561;SDS011;11959;49.418;8.728;2022-10-31T03:00:23;10.68;;;5.00;;
23561;SDS011;11959;49.418;8.728;2022-10-31T03:05:34;9.35;;;5.03;;
23561;SDS011;11959;49.418;8.728;2022-10-31T03:11:06;8.95;;;5.25;;
23561;SDS011;11959;49.418;8.728;2022-10-31T03:13:49;10.52;;;5.32;;
23561;SDS011;11959;49.418;8.728;2022-10-31T03:16:28;9.07;;;4.80;;
23561;SDS011;11959;49.418;8.728;2022-10-31T03:19:31;12.48;;;5.47;;
23561;SDS011;11959;49.418;8.728;2022-10-31T03:22:15;8.95;;;5.25;;
23561;SDS011;11959;49.418;8.728;2022-10-31T03:24:47;12.80;;;5.38;;
23561;SDS011;11959;49.418;8.728;2022-10-31T03:27:14;9.48;;;4.75;;
23561;SDS011;11959;49.418;8.728;2022-10-31T03:29:47;9.38;;;5.45;;
23561;SDS011;11959;49.418;8.728;2022-10-31T03:32:17;11.82;;;5.50;;
23561;SDS011;11959;49.418;8.728;2022-10-31T03:34:57;10.73;;;5.50;;
23561;SDS011;11959;49.418;8.728;2022-10-31T03:37:26;9.98;;;5.18;;
23561;SDS011;11959;49.418;8.728;2022-10-31T03:39:55;10.55;;;4.78;;
23561;SDS011;11959;49.418;8.728;2022-10-31T03:42:23;9.85;;;5.07;;
23561;SDS011;11959;49.418;8.728;2022-10-31T03:44:54;11.55;;;5.60;;
23561;SDS011;11959;49.418;8.728;2022-10-31T03:47:25;13.18;;;5.47;;
23561;SDS011;11959;49.418;8.728;2022-10-31T03:49:51;11.57;;;5.30;;
23561;SDS011;11959;49.418;8.728;2022-10-31T03:52:25;8.60;;;4.68;;
23561;SDS011;11959;49.418;8.728;2022-10-31T03:55:19;8.90;;;5.13;;
23561;SDS011;11959;49.418;8.728;2022-10-31T03:58:08;10.02;;;5.53;;
23561;SDS011;11959;49.418;8.728;2022-10-31T04:00:39;9.27;;;4.90;;
23561;SDS011;11959;49.418;8.728;2022-10-31T04:03:09;11.75;;;5.55;;
23561;SDS011;11959;49.418;8.728;2022-10-31T04:05:38;9.43;;;4.90;;
23561;SDS011;11959;49.418;8.728;2022-10-31T04:08:08;9.30;;;4.88;;
23561;SDS011;11959;49.418;8.728;2022-10-31T04:10:37;12.20;;;5.15;;
23561;SDS011;11959;49.418;8.728;2022-10-31T04:13:09;11.25;;;5.35;;
23561;SDS011;11959;49.418;8.728;2022-10-31T04:15:38;8.43;;;5.05;;
23561;SDS011;11959;49.418;8.728;2022-10-31T04:18:05;14.88;;;5.60;;
23561;SDS011;11959;49.418;8.728;2022-10-31T04:22:58;12.75;;;5.43;;
23561;SDS011;11959;49.418;8.728;2022-10-31T04:25:25;7.88;;;5.05;;
23561;SDS011;11959;49.418;8.728;2022-10-31T04:27:51;10.52;;;5.38;;
23561;SDS011;11959;49.418;8.728;2022-10-31T04:30:16;10.45;;;4.60;;
23561;SDS011;11959;49.418;8.728;2022-10-31T04:32:42;13.07;;;5.53;;
23561;SDS011;11959;49.418;8.728;2022-10-31T04:35:07;9.82;;;4.82;;
23561;SDS011;11959;49.418;8.728;2022-10-31T04:37:33;11.40;;;5.43;;
23561;SDS011;11959;49.418;8.728;2022-10-31T04:39:59;10.57;;;5.10;;
23561;SDS011;11959;49.418;8.728;2022-10-31T04:42:24;9.45;;;5.38;;
23561;SDS011;11959;49.418;8.728;2022-10-31T04:44:50;9.48;;;4.75;;
23561;SDS011;11959;49.418;8.728;2022-10-31T04:47:15;9.68;;;4.90;;
23561;SDS011;11959;49.418;8.728;2022-10-31T04:49:41;12.07;;;5.32;;
23561;SDS011;11959;49.418;8.728;2022-10-31T04:52:07;10.90;;;5.22;;
23561;SDS011;11959;49.418;8.728;2022-10-31T04:54:33;10.02;;;5.25;;
23561;SDS011;11959;49.418;8.728;2022-10-31T04:56:58;8.88;;;5.38;;
23561;SDS011;11959;49.418;8.728;2022-10-31T04:59:24;10.63;;;4.85;;
23561;SDS011;11959;49.418;8.728;2022-10-31T05:01:50;12.23;;;5.68;;
23561;SDS011;11959;49.418;8.728;2022-10-31T05:04:15;12.40;;;5.43;;
23561;SDS011;11959;49.418;8.728;2022-10-31T05:06:41;12.38;;;5.25;;
23561;SDS011;11959;49.418;8.728;2022-10-31T05:09:06;9.45;;;5.18;;
23561;SDS011;11959;49.418;8.728;2022-10-31T05:11:32;9.48;;;5.38;;
23561;SDS011;11959;49.418;8.728;2022-10-31T05:13:58;11.00;;;4.82;;
23561;SDS011;11959;49.418;8.728;2022-10-31T05:16:23;11.77;;;4.78;;
23561;SDS011;11959;49.418;8.728;2022-10-31T05:18:49;9.18;;;5.28;;
23561;SDS011;11959;49.418;8.728;2022-10-31T05:21:14;10.40;;;4.95;;
23561;SDS011;11959;49.418;8.728;2022-10-31T05:23:40;9.75;;;5.10;;
23561;SDS011;11959;49.418;8.728;2022-10-31T05:26:06;11.73;;;6.47;;
23561;SDS011;11959;49.418;8.728;2022-10-31T05:28:31;12.55;;;7.25;;
23561;SDS011;11959;49.418;8.728;2022-10-31T05:30:57;10.20;;;5.78;;
23561;SDS011;11959;49.418;8.728;2022-10-31T05:33:23;7.63;;;5.10;;
23561;SDS011;11959;49.418;8.728;2022-10-31T05:35:48;8.50;;;5.13;;
23561;SDS011;11959;49.418;8.728;2022-10-31T05:38:14;8.55;;;5.38;;
23561;SDS011;11959;49.418;8.728;2022-10-31T05:40:39;7.95;;;5.18;;
23561;SDS011;11959;49.418;8.728;2022-10-31T05:43:05;14.50;;;5.57;;
23561;SDS011;11959;49.418;8.728;2022-10-31T05:45:31;11.93;;;5.60;;
23561;SDS011;11959;49.418;8.728;2022-10-31T05:47:57;8.68;;;5.80;;
23561;SDS011;11959;49.418;8.728;2022-10-31T05:50:25;11.65;;;6.50;;
23561;SDS011;11959;49.418;8.728;2022-10-31T05:53:02;11.95;;;5.65;;
23561;SDS011;11959;49.418;8.728;2022-10-31T05:55:30;9.52;;;5.90;;
23561;SDS011;11959;49.418;8.728;2022-10-31T05:57:57;7.32;;;5.38;;
23561;SDS011;11959;49.418;8.728;2022-10-31T06:00:23;7.47;;;5.25;;
23561;SDS011;11959;49.418;8.728;2022-10-31T06:02:57;9.05;;;5.85;;
23561;SDS011;11959;49.418;8.728;2022-10-31T06:05:24;13.25;;;5.72;;
23561;SDS011;11959;49.418;8.728;2022-10-31T06:07:50;10.68;;;5.50;;
23561;SDS011;11959;49.418;8.728;2022-10-31T06:10:15;10.80;;;6.53;;
23561;SDS011;11959;49.418;8.728;2022-10-31T06:12:41;11.98;;;6.82;;
23561;SDS011;11959;49.418;8.728;2022-10-31T06:15:07;12.80;;;6.88;;
23561;SDS011;11959;49.418;8.728;2022-10-31T06:17:34;9.60;;;6.82;;
23561;SDS011;11959;49.418;8.728;2022-10-31T06:20:00;10.13;;;6.60;;
23561;SDS011;11959;49.418;8.728;2022-10-31T06:22:26;10.88;;;6.82;;
23561;SDS011;11959;49.418;8.728;2022-10-31T06:24:52;15.35;;;6.70;;
23561;SDS011;11959;49.418;8.728;2022-10-31T06:27:18;9.38;;;5.65;;
23561;SDS011;11959;49.418;8.728;2022-10-31T06:29:43;10.70;;;5.57;;
23561;SDS011;11959;49.418;8.728;2022-10-31T06:32:11;9.07;;;5.53;;
23561;SDS011;11959;49.418;8.728;2022-10-31T06:34:37;12.48;;;5.38;;
23561;SDS011;11959;49.418;8.728;2022-10-31T06:37:03;14.55;;;5.78;;
23561;SDS011;11959;49.418;8.728;2022-10-31T06:39:33;10.05;;;4.85;;
23561;SDS011;11959;49.418;8.728;2022-10-31T06:41:59;9.57;;;5.32;;
23561;SDS011;11959;49.418;8.728;2022-10-31T06:44:25;10.88;;;5.68;;
23561;SDS011;11959;49.418;8.728;2022-10-31T06:46:51;9.85;;;5.90;;
23561;SDS011;11959;49.418;8.728;2022-10-31T06:49:16;8.93;;;5.35;;
23561;SDS011;11959;49.418;8.728;2022-10-31T06:51:42;11.00;;;5.50;;
23561;SDS011;11959;49.418;8.728;2022-10-31T06:54:08;9.68;;;5.00;;
23561;SDS011;11959;49.418;8.728;2022-10-31T06:56:33;14.50;;;7.93;;
23561;SDS011;11959;49.418;8.728;2022-10-31T06:58:59;11.30;;;7.30;;
23561;SDS011;11959;49.418;8.728;2022-10-31T07:01:25;12.38;;;6.57;;
23561;SDS011;11959;49.418;8.728;2022-10-31T07:03:51;9.77;;;5.70;;
23561;SDS011;11959;49.418;8.728;2022-10-31T07:06:16;11.70;;;5.72;;
23561;SDS011;11959;49.418;8.728;2022-10-31T07:08:42;9.77;;;5.65;;
23561;SDS011;11959;49.418;8.728;2022-10-31T07:11:07;9.48;;;5.25;;
23561;SDS011;11959;49.418;8.728;2022-10-31T07:13:33;8.02;;;5.22;;
23561;SDS011;11959;49.418;8.728;2022-10-31T07:15:59;9.02;;;5.47;;
23561;SDS011;11959;49.418;8.728;2022-10-31T07:18:26;10.10;;;5.88;;
23561;SDS011;11959;49.418;8.728;2022-10-31T07:20:53;9.55;;;5.88;;
23561;SDS011;11959;49.418;8.728;2022-10-31T07:23:18;8.50;;;4.72;;
23561;SDS011;11959;49.418;8.728;2022-10-31T07:25:44;10.93;;;5.32;;
23561;SDS011;11959;49.418;8.728;2022-10-31T07:28:10;8.80;;;4.93;;
23561;SDS011;11959;49.418;8.728;2022-10-31T07:30:36;7.50;;;4.82;;
23561;SDS011;11959;49.418;8.728;2022-10-31T07:33:04;11.05;;;4.88;;
23561;SDS011;11959;49.418;8.728;2022-10-31T07:35:32;10.15;;;5.10;;
23561;SDS011;11959;49.418;8.728;2022-10-31T07:38:07;10.55;;;5.75;;
23561;SDS011;11959;49.418;8.728;2022-10-31T07:40:36;10.30;;;5.60;;
23561;SDS011;11959;49.418;8.728;2022-10-31T07:43:04;9.70;;;6.18;;
23561;SDS011;11959;49.418;8.728;2022-10-31T07:45:30;12.57;;;6.13;;
23561;SDS011;11959;49.418;8.728;2022-10-31T07:47:56;9.25;;;6.00;;
23561;SDS011;11959;49.418;8.728;2022-10-31T07:50:22;8.52;;;5.28;;
23561;SDS011;11959;49.418;8.728;2022-10-31T07:55:37;9.07;;;5.13;;
23561;SDS011;11959;49.418;8.728;2022-10-31T07:58:04;8.15;;;4.82;;
23561;SDS011;11959;49.418;8.728;2022-10-31T08:00:32;8.77;;;5.05;;
23561;SDS011;11959;49.418;8.728;2022-10-31T08:05:37;9.40;;;5.13;;
23561;SDS011;11959;49.418;8.728;2022-10-31T08:08:03;9.43;;;5.60;;
23561;SDS011;11959;49.418;8.728;2022-10-31T08:10:30;9.07;;;4.47;;
23561;SDS011;11959;49.418;8.728;2022-10-31T08:13:00;8.00;;;4.95;;
23561;SDS011;11959;49.418;8.728;2022-10-31T08:15:28;10.65;;;5.38;;
23561;SDS011;11959;49.418;8.728;2022-10-31T08:17:54;10.10;;;5.20;;
23561;SDS011;11959;49.418;8.728;2022-10-31T08:20:20;9.80;;;5.35;;
23561;SDS011;11959;49.418;8.728;2022-10-31T08:22:53;9.05;;;4.90;;
23561;SDS011;11959;49.418;8.728;2022-10-31T08:25:20;10.70;;;5.00;;
23561;SDS011;11959;49.418;8.728;2022-10-31T08:27:49;8.05;;;4.20;;
23561;SDS011;11959;49.418;8.728;2022-10-31T08:30:16;10.52;;;5.05;;
23561;SDS011;11959;49.418;8.728;2022-10-31T08:32:42;8.88;;;4.88;;
23561;SDS011;11959;49.418;8.728;2022-10-31T08:35:08;8.35;;;5.20;;
23561;SDS011;11959;49.418;8.728;2022-10-31T08:37:34;10.30;;;4.93;;
23561;SDS011;11959;49.418;8.728;2022-10-31T08:39:59;11.52;;;5.15;;
23561;SDS011;11959;49.418;8.728;2022-10-31T08:42:25;9.00;;;4.50;;
23561;SDS011;11959;49.418;8.728;2022-10-31T08:44:50;8.95;;;4.97;;
23561;SDS011;11959;49.418;8.728;2022-10-31T08:47:16;9.95;;;4.80;;
23561;SDS011;11959;49.418;8.728;2022-10-31T08:49:42;9.57;;;4.80;;
23561;SDS011;11959;49.418;8.728;2022-10-31T08:52:07;8.77;;;5.00;;
23561;SDS011;11959;49.418;8.728;2022-10-31T08:54:33;11.63;;;5.28;;
23561;SDS011;11959;49.418;8.728;2022-10-31T08:56:59;8.80;;;4.75;;
23561;SDS011;11959;49.418;8.728;2022-10-31T08:59:24;10.68;;;5.20;;
23561;SDS011;11959;49.418;8.728;2022-10-31T09:01:50;10.77;;;4.72;;
23561;SDS011;11959;49.418;8.728;2022-10-31T09:04:15;9.52;;;4.80;;
23561;SDS011;11959;49.418;8.728;2022-10-31T09:06:41;8.82;;;4.75;;
23561;SDS011;11959;49.418;8.728;2022-10-31T09:09:07;10.02;;;4.80;;
23561;SDS011;11959;49.418;8.728;2022-10-31T09:11:32;9.77;;;4.10;;
23561;SDS011;11959;49.418;8.728;2022-10-31T09:13:58;9.75;;;4.60;;
23561;SDS011;11959;49.418;8.728;2022-10-31T09:16:23;9.50;;;4.05;;
23561;SDS011;11959;49.418;8.728;2022-10-31T09:18:50;8.77;;;4.35;;
23561;SDS011;11959;49.418;8.728;2022-10-31T09:21:15;8.48;;;4.40;;
23561;SDS011;11959;49.418;8.728;2022-10-31T09:23:41;6.95;;;4.50;;
23561;SDS011;11959;49.418;8.728;2022-10-31T09:26:06;8.25;;;4.30;;
23561;SDS011;11959;49.418;8.728;2022-10-31T09:28:32;8.23;;;4.68;;
23561;SDS011;11959;49.418;8.728;2022-10-31T09:30:58;7.82;;;4.40;;
23561;SDS011;11959;49.418;8.728;2022-10-31T09:33:24;8.20;;;4.88;;
23561;SDS011;11959;49.418;8.728;2022-10-31T09:35:49;8.60;;;4.72;;
23561;SDS011;11959;49.418;8.728;2022-10-31T09:38:16;8.27;;;4.63;;
23561;SDS011;11959;49.418;8.728;2022-10-31T09:41:01;8.15;;;4.70;;
23561;SDS011;11959;49.418;8.728;2022-10-31T09:43:56;10.52;;;4.20;;
23561;SDS011;11959;49.418;8.728;2022-10-31T09:46:55;11.25;;;5.00;;
23561;SDS011;11959;49.418;8.728;2022-10-31T09:52:32;9.70;;;6.28;;
23561;SDS011;11959;49.418;8.728;2022-10-31T09:57:48;14.52;;;6.60;;
23561;SDS011;11959;49.418;8.728;2022-10-31T10:00:16;16.45;;;7.53;;
23561;SDS011;11959;49.418;8.728;2022-10-31T10:02:49;14.80;;;7.90;;
23561;SDS011;11959;49.418;8.728;2022-10-31T10:05:22;16.45;;;8.10;;
23561;SDS011;11959;49.418;8.728;2022-10-31T10:08:07;18.77;;;8.77;;
23561;SDS011;11959;49.418;8.728;2022-10-31T10:10:51;15.90;;;8.10;;
23561;SDS011;11959;49.418;8.728;2022-10-31T10:24:17;15.60;;;9.00;;
23561;SDS011;11959;49.418;8.728;2022-10-31T10:29:58;16.70;;;7.22;;
23561;SDS011;11959;49.418;8.728;2022-10-31T10:32:56;15.10;;;6.78;;
23561;SDS011;11959;49.418;8.728;2022-10-31T10:35:25;16.33;;;8.32;;
23561;SDS011;11959;49.418;8.728;2022-10-31T10:38:02;17.65;;;6.20;;
23561;SDS011;11959;49.418;8.728;2022-10-31T10:40:48;13.88;;;6.90;;
23561;SDS011;11959;49.418;8.728;2022-10-31T10:45:54;11.15;;;6.88;;
23561;SDS011;11959;49.418;8.728;2022-10-31T10:48:58;12.00;;;6.03;;
23561;SDS011;11959;49.418;8.728;2022-10-31T10:59:39;8.05;;;5.10;;
23561;SDS011;11959;49.418;8.728;2022-10-31T11:02:16;10.00;;;4.93;;
23561;SDS011;11959;49.418;8.728;2022-10-31T11:04:49;11.68;;;4.78;;
23561;SDS011;11959;49.418;8.728;2022-10-31T11:07:20;10.43;;;4.95;;
23561;SDS011;11959;49.418;8.728;2022-10-31T11:09:45;7.05;;;4.40;;
23561;SDS011;11959;49.418;8.728;2022-10-31T11:12:22;9.13;;;4.20;;
23561;SDS011;11959;49.418;8.728;2022-10-31T11:14:57;10.48;;;4.22;;
23561;SDS011;11959;49.418;8.728;2022-10-31T11:20:00;7.93;;;4.30;;
23561;SDS011;11959;49.418;8.728;2022-10-31T11:22:46;6.50;;;4.03;;
23561;SDS011;11959;49.418;8.728;2022-10-31T11:25:31;11.32;;;4.05;;
23561;SDS011;11959;49.418;8.728;2022-10-31T11:30:29;7.60;;;4.35;;
23561;SDS011;11959;49.418;8.728;2022-10-31T11:32:56;9.65;;;4.55;;
23561;SDS011;11959;49.418;8.728;2022-10-31T11:35:22;9.35;;;4.90;;
23561;SDS011;11959;49.418;8.728;2022-10-31T11:37:50;8.57;;;4.30;;
23561;SDS011;11959;49.418;8.728;2022-10-31T11:40:27;6.72;;;4.47;;
23561;SDS011;11959;49.418;8.728;2022-10-31T11:42:54;6.82;;;3.97;;
23561;SDS011;11959;49.418;8.728;2022-10-31T11:47:49;7.35;;;4.38;;
23561;SDS011;11959;49.418;8.728;2022-10-31T11:50:22;7.20;;;4.28;;
23561;SDS011;11959;49.418;8.728;2022-10-31T11:53:16;7.60;;;4.25;;
23561;SDS011;11959;49.418;8.728;2022-10-31T11:55:45;6.20;;;4.53;;
23561;SDS011;11959;49.418;8.728;2022-10-31T11:58:21;10.23;;;5.80;;
23561;SDS011;11959;49.418;8.728;2022-10-31T12:00:49;15.15;;;6.82;;
23561;SDS011;11959;49.418;8.728;2022-10-31T12:05:49;16.10;;;7.72;;
23561;SDS011;11959;49.418;8.728;2022-10-31T12:08:29;10.73;;;7.00;;
23561;SDS011;11959;49.418;8.728;2022-10-31T12:14:44;10.43;;;7.35;;
23561;SDS011;11959;49.418;8.728;2022-10-31T12:17:13;10.60;;;6.82;;
23561;SDS011;11959;49.418;8.728;2022-10-31T12:20:03;11.25;;;5.82;;
23561;SDS011;11959;49.418;8.728;2022-10-31T12:31:32;9.70;;;4.60;;
23561;SDS011;11959;49.418;8.728;2022-10-31T12:37:06;8.02;;;5.57;;
23561;SDS011;11959;49.418;8.728;2022-10-31T12:50:47;10.73;;;7.20;;
23561;SDS011;11959;49.418;8.728;2022-10-31T13:01:40;12.32;;;8.20;;
23561;SDS011;11959;49.418;8.728;2022-10-31T13:04:14;18.30;;;9.18;;
23561;SDS011;11959;49.418;8.728;2022-10-31T13:06:47;15.23;;;9.30;;
23561;SDS011;11959;49.418;8.728;2022-10-31T13:09:30;12.43;;;7.40;;
23561;SDS011;11959;49.418;8.728;2022-10-31T13:12:03;12.63;;;7.22;;
23561;SDS011;11959;49.418;8.728;2022-10-31T13:14:40;14.57;;;8.95;;
23561;SDS011;11959;49.418;8.728;2022-10-31T13:17:15;16.02;;;8.95;;
23561;SDS011;11959;49.418;8.728;2022-10-31T13:20:12;12.13;;;7.88;;
23561;SDS011;11959;49.418;8.728;2022-10-31T13:22:38;16.33;;;8.10;;
23561;SDS011;11959;49.418;8.728;2022-10-31T13:30:19;15.77;;;7.82;;
23561;SDS011;11959;49.418;8.728;2022-10-31T13:38:22;12.80;;;5.93;;
23561;SDS011;11959;49.418;8.728;2022-10-31T13:40:58;12.27;;;5.90;;
23561;SDS011;11959;49.418;8.728;2022-10-31T13:45:53;8.38;;;4.15;;
23561;SDS011;11959;49.418;8.728;2022-10-31T13:48:37;10.02;;;4.85;;
23561;SDS011;11959;49.418;8.728;2022-10-31T13:51:07;10.82;;;5.03;;
23561;SDS011;11959;49.418;8.728;2022-10-31T13:56:11;13.25;;;5.50;;
23561;SDS011;11959;49.418;8.728;2022-10-31T13:58:40;7.60;;;4.53;;
23561;SDS011;11959;49.418;8.728;2022-10-31T14:01:21;7.38;;;4.38;;
23561;SDS011;11959;49.418;8.728;2022-10-31T14:03:54;8.85;;;4.78;;
23561;SDS011;11959;49.418;8.728;2022-10-31T14:06:37;10.00;;;5.50;;
23561;SDS011;11959;49.418;8.728;2022-10-31T14:09:21;8.43;;;4.38;;
23561;SDS011;11959;49.418;8.728;2022-10-31T14:11:55;14.88;;;6.97;;
23561;SDS011;11959;49.418;8.728;2022-10-31T14:14:26;15.77;;;8.73;;
23561;SDS011;11959;49.418;8.728;2022-10-31T14:16:57;16.77;;;8.55;;
23561;SDS011;11959;49.418;8.728;2022-10-31T14:19:24;16.45;;;9.00;;
23561;SDS011;11959;49.418;8.728;2022-10-31T14:21:51;15.55;;;10.00;;
23561;SDS011;11959;49.418;8.728;2022-10-31T14:26:53;15.35;;;8.38;;
23561;SDS011;11959;49.418;8.728;2022-10-31T14:29:22;17.80;;;9.35;;
23561;SDS011;11959;49.418;8.728;2022-10-31T14:34:43;16.85;;;9.82;;
23561;SDS011;11959;49.418;8.728;2022-10-31T14:51:19;16.85;;;9.35;;
23561;SDS011;11959;49.418;8.728;2022-10-31T14:53:54;17.70;;;9.40;;
23561;SDS011;11959;49.418;8.728;2022-10-31T14:56:25;15.43;;;9.23;;
23561;SDS011;11959;49.418;8.728;2022-10-31T14:58:52;13.43;;;8.38;;
23561;SDS011;11959;49.418;8.728;2022-10-31T15:01:26;17.48;;;7.90;;
23561;SDS011;11959;49.418;8.728;2022-10-31T15:03:58;14.00;;;7.95;;
23561;SDS011;11959;49.418;8.728;2022-10-31T15:06:31;13.10;;;7.85;;
23561;SDS011;11959;49.418;8.728;2022-10-31T15:09:05;15.73;;;7.68;;
23561;SDS011;11959;49.418;8.728;2022-10-31T15:11:45;12.68;;;7.43;;
23561;SDS011;11959;49.418;8.728;2022-10-31T15:14:22;13.65;;;7.88;;
23561;SDS011;11959;49.418;8.728;2022-10-31T15:16:49;14.15;;;7.55;;
23561;SDS011;11959;49.418;8.728;2022-10-31T15:19:21;15.00;;;7.05;;
23561;SDS011;11959;49.418;8.728;2022-10-31T15:21:50;13.80;;;7.20;;
23561;SDS011;11959;49.418;8.728;2022-10-31T15:24:19;15.68;;;7.63;;
23561;SDS011;11959;49.418;8.728;2022-10-31T15:26:47;19.13;;;8.80;;
23561;SDS011;11959;49.418;8.728;2022-10-31T15:29:16;12.13;;;7.28;;
23561;SDS011;11959;49.418;8.728;2022-10-31T15:31:56;13.95;;;7.78;;
23561;SDS011;11959;49.418;8.728;2022-10-31T15:34:25;16.25;;;8.35;;
23561;SDS011;11959;49.418;8.728;2022-10-31T15:36:55;17.70;;;10.07;;
23561;SDS011;11959;49.418;8.728;2022-10-31T15:39:21;20.15;;;10.63;;
23561;SDS011;11959;49.418;8.728;2022-10-31T15:41:50;19.92;;;11.07;;
23561;SDS011;11959;49.418;8.728;2022-10-31T15:44:23;22.75;;;12.60;;
23561;SDS011;11959;49.418;8.728;2022-10-31T15:46:52;21.00;;;12.50;;
23561;SDS011;11959;49.418;8.728;2022-10-31T15:49:38;14.65;;;9.45;;
23561;SDS011;11959;49.418;8.728;2022-10-31T15:54:48;14.18;;;8.07;;
23561;SDS011;11959;49.418;8.728;2022-10-31T15:57:17;15.80;;;7.90;;
23561;SDS011;11959;49.418;8.728;2022-10-31T15:59:45;12.63;;;7.50;;
23561;SDS011;11959;49.418;8.728;2022-10-31T16:02:13;16.30;;;7.38;;
23561;SDS011;11959;49.418;8.728;2022-10-31T16:04:56;13.13;;;6.63;;
23561;SDS011;11959;49.418;8.728;2022-10-31T16:07:26;14.02;;;7.38;;
23561;SDS011;11959;49.418;8.728;2022-10-31T16:09:54;14.57;;;7.43;;
23561;SDS011;11959;49.418;8.728;2022-10-31T16:12:23;12.38;;;7.47;;
23561;SDS011;11959;49.418;8.728;2022-10-31T16:14:50;16.98;;;8.15;;
23561;SDS011;11959;49.418;8.728;2022-10-31T16:17:19;14.50;;;8.57;;
23561;SDS011;11959;49.418;8.728;2022-10-31T16:19:55;12.43;;;7.72;;
23561;SDS011;11959;49.418;8.728;2022-10-31T16:22:25;14.57;;;7.80;;
23561;SDS011;11959;49.418;8.728;2022-10-31T16:25:01;15.60;;;7.85;;
23561;SDS011;11959;49.418;8.728;2022-10-31T16:27:31;11.90;;;7.60;;
23561;SDS011;11959;49.418;8.728;2022-10-31T16:30:00;14.45;;;7.13;;
23561;SDS011;11959;49.418;8.728;2022-10-31T16:35:23;12.45;;;7.10;;
23561;SDS011;11959;49.418;8.728;2022-10-31T16:37:52;13.00;;;7.43;;
23561;SDS011;11959;49.418;8.728;2022-10-31T16:40:18;11.75;;;6.45;;
23561;SDS011;11959;49.418;8.728;2022-10-31T16:42:45;11.80;;;6.43;;
23561;SDS011;11959;49.418;8.728;2022-10-31T16:45:18;15.00;;;6.28;;
23561;SDS011;11959;49.418;8.728;2022-10-31T16:47:45;9.77;;;5.57;;
23561;SDS011;11959;49.418;8.728;2022-10-31T16:50:12;9.32;;;5.75;;
23561;SDS011;11959;49.418;8.728;2022-10-31T16:52:44;11.10;;;5.97;;
23561;SDS011;11959;49.418;8.728;2022-10-31T16:55:12;14.07;;;6.63;;
23561;SDS011;11959;49.418;8.728;2022-10-31T16:57:40;11.30;;;5.88;;
23561;SDS011;11959;49.418;8.728;2022-10-31T17:00:18;11.93;;;5.88;;
23561;SDS011;11959;49.418;8.728;2022-10-31T17:02:46;12.38;;;6.03;;
23561;SDS011;11959;49.418;8.728;2022-10-31T17:05:14;14.18;;;5.78;;
23561;SDS011;11959;49.418;8.728;2022-10-31T17:07:41;22.15;;;16.88;;
23561;SDS011;11959;49.418;8.728;2022-10-31T17:10:08;10.93;;;5.90;;
23561;SDS011;11959;49.418;8.728;2022-10-31T17:12:35;10.45;;;5.13;;
23561;SDS011;11959;49.418;8.728;2022-10-31T17:15:02;10.07;;;5.57;;
23561;SDS011;11959;49.418;8.728;2022-10-31T17:17:28;7.97;;;5.18;;
23561;SDS011;11959;49.418;8.728;2022-10-31T17:19:53;14.25;;;5.72;;
23561;SDS011;11959;49.418;8.728;2022-10-31T17:22:19;10.88;;;5.47;;
23561;SDS011;11959;49.418;8.728;2022-10-31T17:24:44;9.32;;;5.32;;
23561;SDS011;11959;49.418;8.728;2022-10-31T17:27:10;10.10;;;5.10;;
23561;SDS011;11959;49.418;8.728;2022-10-31T17:29:36;9.43;;;5.35;;
23561;SDS011;11959;49.418;8.728;2022-10-31T17:32:02;12.57;;;6.30;;
23561;SDS011;11959;49.418;8.728;2022-10-31T17:34:28;10.75;;;5.65;;
23561;SDS011;11959;49.418;8.728;2022-10-31T17:36:54;11.45;;;5.28;;